Garrison, KY (41141)

6:25 PM EDT on August 28, 2016 (GMT -0400)
Lloyd Kentucky | | Change Station
Active Advisory: Heat Advisory

Elev 545 ft 38.63 °N, 82.87 °W | Updated 1 minute ago

Clear
Clear
73.9 °F
Feels Like 71 °F
N
0.0
Wind Variable Wind from SSW
Gusts 0.0 mph

Today
High -- | Low -- °F
--% Chance of Precip.
Yesterday
High -- | Low -- °F
Precip. -- in
Pressure 30.09 in
Visibility 10.0 miles
Clouds Clear
Heat Index 71 °F
Dew Point 72 °F
Humidity 93%
Rainfall 0.74 in
Snow Depth Not available.
6:58 AM 8:07 PM
Waning Crescent, 13% visible
METAR KHTS 282151Z 35005KT 10SM CLR 27/19 A3012 RMK AO2 SLP190 T02720189
Pressure 30.09 in
Visibility 10.0 miles
Clouds Clear
Heat Index 71 °F
Dew Point 72 °F
Humidity 93%
Rainfall 0.74 in
Snow Depth Not available.
6:58 AM 8:07 PM
Waning Crescent, 13% visible
METAR KHTS 282151Z 35005KT 10SM CLR 27/19 A3012 RMK AO2 SLP190 T02720189

10-Day Weather Forecast

Almanac

Astronomy

Aug. 28, 2016 Rise Set
Actual Time
Civil Twilight
Nautical Twilight
Astronomical Twilight
Moon
Length of Visible Light
Length of Day
Tomorrow will be .
, % of the Moon is Illuminated

Today's Extremes

State Highs State Lows

Community

WunderPhotos

Upload Photos

1,935,705 photos uploaded!

WunderBlog® & News

Nearby

Air Quality

  Air Quality AQ Index Pollutant
Not available.

Snow Depth

Station Depth Elevation

Earthquake Activity

City Distance Mag. Time & Date
Minimum magnitude displayed is 2.5.

Coastal Water Temperatures

Place Temperature

Stations

Nearby Weather Stations

Station Location Temp. Windchill Dew Point Humidity Wind Precip. Elev Updated Type
                   

Watches & Warnings

Heat Advisory
Issued: 3:54 PM EDT Aug. 28, 2016 – National Weather Service

... Heat advisory remains in effect until 9 PM EDT this evening...

* heat index values... up to 101 due to temperatures in the lower
90s... and dewpoints in the lower 70s.

* Timing... rest of this afternoon into early evening.

* Impacts... heat stroke... heat exhaustion and other heat
related illnesses will be possible... especially if you spend a
significant amount of time outdoors... or are involved in any
strenuous outdoor activity.

Precautionary/preparedness actions...

Reduce outdoor activities... especially from mid-morning through
the afternoon. Wear light weight and loose fitting clothing and
drink plenty of water. If possible... spend more time in air
conditioned or well ventilated places.